sensor_id;sensor_type;location;lat;lon;timestamp;P1;durP1;ratioP1;P2;durP2;ratioP2
57443;SDS011;43289;52.962;6.196;2023-04-25T00:00:24;19.45;;;5.35;;
57443;SDS011;43289;52.962;6.196;2023-04-25T00:02:50;14.48;;;5.43;;
57443;SDS011;43289;52.962;6.196;2023-04-25T00:05:16;13.27;;;4.72;;
57443;SDS011;43289;52.962;6.196;2023-04-25T00:07:42;12.75;;;4.65;;
57443;SDS011;43289;52.962;6.196;2023-04-25T00:10:08;21.20;;;4.25;;
57443;SDS011;43289;52.962;6.196;2023-04-25T00:12:36;13.82;;;4.50;;
57443;SDS011;43289;52.962;6.196;2023-04-25T00:15:01;18.25;;;5.03;;
57443;SDS011;43289;52.962;6.196;2023-04-25T00:17:28;12.30;;;4.45;;
57443;SDS011;43289;52.962;6.196;2023-04-25T00:19:53;14.38;;;5.35;;
57443;SDS011;43289;52.962;6.196;2023-04-25T00:22:19;20.15;;;5.05;;
57443;SDS011;43289;52.962;6.196;2023-04-25T00:24:45;14.95;;;4.40;;
57443;SDS011;43289;52.962;6.196;2023-04-25T00:27:11;14.10;;;5.10;;
57443;SDS011;43289;52.962;6.196;2023-04-25T00:29:36;17.08;;;4.68;;
57443;SDS011;43289;52.962;6.196;2023-04-25T00:32:02;15.48;;;4.05;;
57443;SDS011;43289;52.962;6.196;2023-04-25T00:34:28;19.40;;;4.20;;
57443;SDS011;43289;52.962;6.196;2023-04-25T00:36:53;16.15;;;5.32;;
57443;SDS011;43289;52.962;6.196;2023-04-25T00:39:19;16.75;;;3.78;;
57443;SDS011;43289;52.962;6.196;2023-04-25T00:41:45;14.73;;;5.10;;
57443;SDS011;43289;52.962;6.196;2023-04-25T00:44:10;16.45;;;4.78;;
57443;SDS011;43289;52.962;6.196;2023-04-25T00:46:37;16.67;;;4.95;;
57443;SDS011;43289;52.962;6.196;2023-04-25T00:49:04;13.93;;;4.43;;
57443;SDS011;43289;52.962;6.196;2023-04-25T00:51:30;18.58;;;5.88;;
57443;SDS011;43289;52.962;6.196;2023-04-25T00:53:57;13.80;;;5.40;;
57443;SDS011;43289;52.962;6.196;2023-04-25T00:56:23;15.10;;;4.82;;
57443;SDS011;43289;52.962;6.196;2023-04-25T00:58:49;11.40;;;3.80;;
57443;SDS011;43289;52.962;6.196;2023-04-25T01:01:18;12.68;;;4.13;;
57443;SDS011;43289;52.962;6.196;2023-04-25T01:03:43;10.65;;;2.95;;
57443;SDS011;43289;52.962;6.196;2023-04-25T01:06:11;15.60;;;3.97;;
57443;SDS011;43289;52.962;6.196;2023-04-25T01:08:37;15.20;;;4.22;;
57443;SDS011;43289;52.962;6.196;2023-04-25T01:11:04;16.98;;;4.63;;
57443;SDS011;43289;52.962;6.196;2023-04-25T01:13:30;13.45;;;4.22;;
57443;SDS011;43289;52.962;6.196;2023-04-25T01:15:57;16.60;;;4.88;;
57443;SDS011;43289;52.962;6.196;2023-04-25T01:18:23;10.82;;;3.70;;
57443;SDS011;43289;52.962;6.196;2023-04-25T01:20:51;18.02;;;3.92;;
57443;SDS011;43289;52.962;6.196;2023-04-25T01:23:18;18.58;;;4.22;;
57443;SDS011;43289;52.962;6.196;2023-04-25T01:25:45;14.43;;;4.32;;
57443;SDS011;43289;52.962;6.196;2023-04-25T01:28:11;16.63;;;4.57;;
57443;SDS011;43289;52.962;6.196;2023-04-25T01:30:37;16.05;;;4.28;;
57443;SDS011;43289;52.962;6.196;2023-04-25T01:33:04;18.33;;;4.85;;
57443;SDS011;43289;52.962;6.196;2023-04-25T01:35:31;12.13;;;4.22;;
57443;SDS011;43289;52.962;6.196;2023-04-25T01:37:57;13.73;;;3.85;;
57443;SDS011;43289;52.962;6.196;2023-04-25T01:40:25;13.55;;;4.22;;
57443;SDS011;43289;52.962;6.196;2023-04-25T01:42:52;17.85;;;4.10;;
57443;SDS011;43289;52.962;6.196;2023-04-25T01:45:18;16.23;;;4.45;;
57443;SDS011;43289;52.962;6.196;2023-04-25T01:47:44;14.05;;;3.85;;
57443;SDS011;43289;52.962;6.196;2023-04-25T01:50:13;9.05;;;4.10;;
57443;SDS011;43289;52.962;6.196;2023-04-25T01:52:41;13.63;;;3.33;;
57443;SDS011;43289;52.962;6.196;2023-04-25T01:55:08;15.00;;;4.30;;
57443;SDS011;43289;52.962;6.196;2023-04-25T01:57:34;15.30;;;4.97;;
57443;SDS011;43289;52.962;6.196;2023-04-25T02:00:01;10.52;;;3.35;;
57443;SDS011;43289;52.962;6.196;2023-04-25T02:02:29;14.77;;;3.33;;
57443;SDS011;43289;52.962;6.196;2023-04-25T02:04:55;13.48;;;3.88;;
57443;SDS011;43289;52.962;6.196;2023-04-25T02:07:21;19.08;;;3.58;;
57443;SDS011;43289;52.962;6.196;2023-04-25T02:09:46;12.43;;;3.22;;
57443;SDS011;43289;52.962;6.196;2023-04-25T02:12:12;12.18;;;3.65;;
57443;SDS011;43289;52.962;6.196;2023-04-25T02:14:38;10.73;;;2.90;;
57443;SDS011;43289;52.962;6.196;2023-04-25T02:17:03;13.50;;;3.30;;
57443;SDS011;43289;52.962;6.196;2023-04-25T02:19:30;11.38;;;3.35;;
57443;SDS011;43289;52.962;6.196;2023-04-25T02:21:56;10.57;;;4.07;;
57443;SDS011;43289;52.962;6.196;2023-04-25T02:24:22;10.45;;;2.97;;
57443;SDS011;43289;52.962;6.196;2023-04-25T02:26:47;11.35;;;3.22;;
57443;SDS011;43289;52.962;6.196;2023-04-25T02:29:14;11.75;;;2.88;;
57443;SDS011;43289;52.962;6.196;2023-04-25T02:31:40;10.88;;;2.85;;
57443;SDS011;43289;52.962;6.196;2023-04-25T02:34:06;12.23;;;3.30;;
57443;SDS011;43289;52.962;6.196;2023-04-25T02:36:31;9.75;;;2.53;;
57443;SDS011;43289;52.962;6.196;2023-04-25T02:38:59;8.52;;;2.15;;
57443;SDS011;43289;52.962;6.196;2023-04-25T02:41:25;13.00;;;3.10;;
57443;SDS011;43289;52.962;6.196;2023-04-25T02:43:51;14.23;;;2.80;;
57443;SDS011;43289;52.962;6.196;2023-04-25T02:46:17;13.82;;;3.53;;
57443;SDS011;43289;52.962;6.196;2023-04-25T02:48:42;16.73;;;2.78;;
57443;SDS011;43289;52.962;6.196;2023-04-25T02:51:08;10.63;;;2.60;;
57443;SDS011;43289;52.962;6.196;2023-04-25T02:53:34;10.20;;;3.10;;
57443;SDS011;43289;52.962;6.196;2023-04-25T02:56:01;10.77;;;3.03;;
57443;SDS011;43289;52.962;6.196;2023-04-25T02:58:26;6.47;;;2.15;;
57443;SDS011;43289;52.962;6.196;2023-04-25T03:00:52;11.35;;;3.63;;
57443;SDS011;43289;52.962;6.196;2023-04-25T03:03:18;8.60;;;3.33;;
57443;SDS011;43289;52.962;6.196;2023-04-25T03:05:46;7.93;;;2.60;;
57443;SDS011;43289;52.962;6.196;2023-04-25T03:08:16;5.55;;;1.75;;
57443;SDS011;43289;52.962;6.196;2023-04-25T03:10:44;8.85;;;2.05;;
57443;SDS011;43289;52.962;6.196;2023-04-25T03:13:09;8.68;;;2.90;;
57443;SDS011;43289;52.962;6.196;2023-04-25T03:15:35;9.80;;;3.13;;
57443;SDS011;43289;52.962;6.196;2023-04-25T03:18:01;9.10;;;2.97;;
57443;SDS011;43289;52.962;6.196;2023-04-25T03:20:27;8.75;;;2.92;;
57443;SDS011;43289;52.962;6.196;2023-04-25T03:22:53;11.32;;;3.05;;
57443;SDS011;43289;52.962;6.196;2023-04-25T03:25:19;12.30;;;3.28;;
57443;SDS011;43289;52.962;6.196;2023-04-25T03:27:44;9.60;;;2.88;;
57443;SDS011;43289;52.962;6.196;2023-04-25T03:30:10;10.15;;;2.80;;
57443;SDS011;43289;52.962;6.196;2023-04-25T03:32:37;9.73;;;2.92;;
57443;SDS011;43289;52.962;6.196;2023-04-25T03:35:03;15.80;;;3.38;;
57443;SDS011;43289;52.962;6.196;2023-04-25T03:37:29;11.30;;;3.85;;
57443;SDS011;43289;52.962;6.196;2023-04-25T03:39:54;11.73;;;3.03;;
57443;SDS011;43289;52.962;6.196;2023-04-25T03:42:20;11.48;;;2.47;;
57443;SDS011;43289;52.962;6.196;2023-04-25T03:44:47;10.52;;;2.78;;
57443;SDS011;43289;52.962;6.196;2023-04-25T03:47:14;11.18;;;2.85;;
57443;SDS011;43289;52.962;6.196;2023-04-25T03:49:39;12.98;;;2.88;;
57443;SDS011;43289;52.962;6.196;2023-04-25T03:52:06;8.27;;;2.88;;
57443;SDS011;43289;52.962;6.196;2023-04-25T03:54:32;10.95;;;3.58;;
57443;SDS011;43289;52.962;6.196;2023-04-25T03:56:57;8.98;;;2.80;;
57443;SDS011;43289;52.962;6.196;2023-04-25T03:59:23;10.10;;;2.70;;
57443;SDS011;43289;52.962;6.196;2023-04-25T04:01:49;10.38;;;2.65;;
57443;SDS011;43289;52.962;6.196;2023-04-25T04:04:15;10.80;;;2.60;;
57443;SDS011;43289;52.962;6.196;2023-04-25T04:06:41;10.80;;;3.15;;
57443;SDS011;43289;52.962;6.196;2023-04-25T04:09:07;11.98;;;2.75;;
57443;SDS011;43289;52.962;6.196;2023-04-25T04:11:36;10.70;;;3.20;;
57443;SDS011;43289;52.962;6.196;2023-04-25T04:14:03;9.75;;;2.20;;
57443;SDS011;43289;52.962;6.196;2023-04-25T04:16:32;11.52;;;3.42;;
57443;SDS011;43289;52.962;6.196;2023-04-25T04:18:58;9.50;;;3.25;;
57443;SDS011;43289;52.962;6.196;2023-04-25T04:21:24;9.93;;;2.60;;
57443;SDS011;43289;52.962;6.196;2023-04-25T04:23:49;12.73;;;3.30;;
57443;SDS011;43289;52.962;6.196;2023-04-25T04:26:15;12.25;;;2.80;;
57443;SDS011;43289;52.962;6.196;2023-04-25T04:28:43;9.40;;;2.33;;
57443;SDS011;43289;52.962;6.196;2023-04-25T04:31:09;7.63;;;3.08;;
57443;SDS011;43289;52.962;6.196;2023-04-25T04:33:35;10.18;;;3.00;;
57443;SDS011;43289;52.962;6.196;2023-04-25T04:36:02;14.27;;;2.75;;
57443;SDS011;43289;52.962;6.196;2023-04-25T04:38:28;6.60;;;2.67;;
57443;SDS011;43289;52.962;6.196;2023-04-25T04:40:55;8.52;;;3.00;;
57443;SDS011;43289;52.962;6.196;2023-04-25T04:43:21;8.43;;;3.38;;
57443;SDS011;43289;52.962;6.196;2023-04-25T04:45:47;11.55;;;2.83;;
57443;SDS011;43289;52.962;6.196;2023-04-25T04:48:15;8.95;;;2.70;;
57443;SDS011;43289;52.962;6.196;2023-04-25T04:50:42;8.68;;;2.28;;
57443;SDS011;43289;52.962;6.196;2023-04-25T04:53:12;9.85;;;2.55;;
57443;SDS011;43289;52.962;6.196;2023-04-25T04:55:38;6.45;;;2.53;;
57443;SDS011;43289;52.962;6.196;2023-04-25T04:58:05;6.40;;;2.28;;
57443;SDS011;43289;52.962;6.196;2023-04-25T05:00:30;7.00;;;2.20;;
57443;SDS011;43289;52.962;6.196;2023-04-25T05:02:58;13.20;;;2.58;;
57443;SDS011;43289;52.962;6.196;2023-04-25T05:05:23;8.60;;;2.70;;
57443;SDS011;43289;52.962;6.196;2023-04-25T05:07:49;10.93;;;2.97;;
57443;SDS011;43289;52.962;6.196;2023-04-25T05:10:16;10.10;;;2.65;;
57443;SDS011;43289;52.962;6.196;2023-04-25T05:12:43;5.68;;;2.50;;
57443;SDS011;43289;52.962;6.196;2023-04-25T05:15:10;11.65;;;2.50;;
57443;SDS011;43289;52.962;6.196;2023-04-25T05:17:36;13.40;;;2.60;;
57443;SDS011;43289;52.962;6.196;2023-04-25T05:20:02;7.05;;;2.20;;
57443;SDS011;43289;52.962;6.196;2023-04-25T05:24:57;16.67;;;2.67;;
57443;SDS011;43289;52.962;6.196;2023-04-25T05:27:23;9.55;;;2.17;;
57443;SDS011;43289;52.962;6.196;2023-04-25T05:29:48;14.05;;;3.08;;
57443;SDS011;43289;52.962;6.196;2023-04-25T05:32:14;6.20;;;2.38;;
57443;SDS011;43289;52.962;6.196;2023-04-25T05:34:40;9.55;;;2.20;;
57443;SDS011;43289;52.962;6.196;2023-04-25T05:37:06;12.40;;;2.45;;
57443;SDS011;43289;52.962;6.196;2023-04-25T05:39:32;7.55;;;2.42;;
57443;SDS011;43289;52.962;6.196;2023-04-25T05:41:58;8.73;;;2.25;;
57443;SDS011;43289;52.962;6.196;2023-04-25T05:44:23;7.65;;;2.55;;
57443;SDS011;43289;52.962;6.196;2023-04-25T05:46:49;9.20;;;2.47;;
57443;SDS011;43289;52.962;6.196;2023-04-25T05:49:14;10.15;;;2.35;;
57443;SDS011;43289;52.962;6.196;2023-04-25T05:51:40;10.20;;;2.17;;
57443;SDS011;43289;52.962;6.196;2023-04-25T05:54:07;14.68;;;4.30;;
57443;SDS011;43289;52.962;6.196;2023-04-25T05:56:32;9.98;;;2.80;;
57443;SDS011;43289;52.962;6.196;2023-04-25T05:58:58;11.15;;;2.35;;
57443;SDS011;43289;52.962;6.196;2023-04-25T06:01:31;12.45;;;2.38;;
57443;SDS011;43289;52.962;6.196;2023-04-25T06:03:56;10.27;;;2.55;;
57443;SDS011;43289;52.962;6.196;2023-04-25T06:06:22;9.35;;;2.70;;
57443;SDS011;43289;52.962;6.196;2023-04-25T06:08:48;8.77;;;2.05;;
57443;SDS011;43289;52.962;6.196;2023-04-25T06:11:13;11.10;;;2.55;;
57443;SDS011;43289;52.962;6.196;2023-04-25T06:13:41;8.07;;;2.00;;
57443;SDS011;43289;52.962;6.196;2023-04-25T06:16:06;3.80;;;1.63;;
57443;SDS011;43289;52.962;6.196;2023-04-25T06:18:32;6.50;;;2.15;;
57443;SDS011;43289;52.962;6.196;2023-04-25T06:20:58;6.93;;;2.10;;
57443;SDS011;43289;52.962;6.196;2023-04-25T06:23:23;4.30;;;1.73;;
57443;SDS011;43289;52.962;6.196;2023-04-25T06:25:49;8.68;;;1.75;;
57443;SDS011;43289;52.962;6.196;2023-04-25T06:28:18;6.38;;;1.65;;
57443;SDS011;43289;52.962;6.196;2023-04-25T06:30:44;7.28;;;2.50;;
57443;SDS011;43289;52.962;6.196;2023-04-25T06:33:10;4.28;;;1.77;;
57443;SDS011;43289;52.962;6.196;2023-04-25T06:35:35;6.25;;;1.92;;
57443;SDS011;43289;52.962;6.196;2023-04-25T06:38:02;7.03;;;1.30;;
57443;SDS011;43289;52.962;6.196;2023-04-25T06:40:27;4.10;;;1.48;;
57443;SDS011;43289;52.962;6.196;2023-04-25T06:42:56;4.65;;;1.77;;
57443;SDS011;43289;52.962;6.196;2023-04-25T06:45:22;7.95;;;1.80;;
57443;SDS011;43289;52.962;6.196;2023-04-25T06:47:47;4.80;;;1.50;;
57443;SDS011;43289;52.962;6.196;2023-04-25T06:50:13;6.20;;;1.80;;
57443;SDS011;43289;52.962;6.196;2023-04-25T06:52:46;9.90;;;1.77;;
57443;SDS011;43289;52.962;6.196;2023-04-25T06:55:12;6.00;;;1.67;;
57443;SDS011;43289;52.962;6.196;2023-04-25T06:57:40;4.70;;;1.48;;
57443;SDS011;43289;52.962;6.196;2023-04-25T07:00:05;5.50;;;1.50;;
57443;SDS011;43289;52.962;6.196;2023-04-25T07:02:36;7.75;;;1.80;;
57443;SDS011;43289;52.962;6.196;2023-04-25T07:05:02;7.10;;;1.67;;
57443;SDS011;43289;52.962;6.196;2023-04-25T07:07:29;7.60;;;3.85;;
57443;SDS011;43289;52.962;6.196;2023-04-25T07:09:55;5.78;;;1.30;;
57443;SDS011;43289;52.962;6.196;2023-04-25T07:12:21;9.10;;;1.83;;
57443;SDS011;43289;52.962;6.196;2023-04-25T07:14:46;4.93;;;1.98;;
57443;SDS011;43289;52.962;6.196;2023-04-25T07:17:12;6.78;;;2.42;;
57443;SDS011;43289;52.962;6.196;2023-04-25T07:19:38;6.45;;;1.70;;
57443;SDS011;43289;52.962;6.196;2023-04-25T07:22:05;7.60;;;1.83;;
57443;SDS011;43289;52.962;6.196;2023-04-25T07:24:31;5.45;;;2.45;;
57443;SDS011;43289;52.962;6.196;2023-04-25T07:26:58;3.58;;;1.48;;
57443;SDS011;43289;52.962;6.196;2023-04-25T07:29:24;6.93;;;1.92;;
57443;SDS011;43289;52.962;6.196;2023-04-25T07:31:49;9.20;;;1.95;;
57443;SDS011;43289;52.962;6.196;2023-04-25T07:34:15;6.45;;;1.88;;
57443;SDS011;43289;52.962;6.196;2023-04-25T07:36:40;12.95;;;1.65;;
57443;SDS011;43289;52.962;6.196;2023-04-25T07:39:06;6.72;;;1.70;;
57443;SDS011;43289;52.962;6.196;2023-04-25T07:41:34;9.75;;;2.42;;
57443;SDS011;43289;52.962;6.196;2023-04-25T07:43:59;5.88;;;1.90;;
57443;SDS011;43289;52.962;6.196;2023-04-25T07:46:25;7.38;;;1.90;;
57443;SDS011;43289;52.962;6.196;2023-04-25T07:48:51;5.97;;;2.35;;
57443;SDS011;43289;52.962;6.196;2023-04-25T07:51:16;6.95;;;1.80;;
57443;SDS011;43289;52.962;6.196;2023-04-25T07:53:46;8.32;;;2.40;;
57443;SDS011;43289;52.962;6.196;2023-04-25T07:56:12;9.73;;;2.42;;
57443;SDS011;43289;52.962;6.196;2023-04-25T07:58:38;5.45;;;1.88;;
57443;SDS011;43289;52.962;6.196;2023-04-25T08:01:04;4.18;;;1.75;;
57443;SDS011;43289;52.962;6.196;2023-04-25T08:03:30;10.35;;;2.30;;
57443;SDS011;43289;52.962;6.196;2023-04-25T08:05:56;7.13;;;1.50;;
57443;SDS011;43289;52.962;6.196;2023-04-25T08:08:22;10.75;;;2.03;;
57443;SDS011;43289;52.962;6.196;2023-04-25T08:10:48;6.88;;;1.92;;
57443;SDS011;43289;52.962;6.196;2023-04-25T08:13:19;7.90;;;1.92;;
57443;SDS011;43289;52.962;6.196;2023-04-25T08:15:45;5.68;;;1.45;;
57443;SDS011;43289;52.962;6.196;2023-04-25T08:18:11;10.38;;;2.13;;
57443;SDS011;43289;52.962;6.196;2023-04-25T08:20:37;9.18;;;2.10;;
57443;SDS011;43289;52.962;6.196;2023-04-25T08:23:03;6.05;;;1.80;;
57443;SDS011;43289;52.962;6.196;2023-04-25T08:25:30;6.63;;;1.48;;
57443;SDS011;43289;52.962;6.196;2023-04-25T08:27:56;9.10;;;2.00;;
57443;SDS011;43289;52.962;6.196;2023-04-25T08:30:24;6.47;;;2.60;;
57443;SDS011;43289;52.962;6.196;2023-04-25T08:32:50;5.13;;;1.52;;
57443;SDS011;43289;52.962;6.196;2023-04-25T08:35:16;5.90;;;1.60;;
57443;SDS011;43289;52.962;6.196;2023-04-25T08:37:42;5.82;;;1.50;;
57443;SDS011;43289;52.962;6.196;2023-04-25T08:40:09;6.50;;;1.75;;
57443;SDS011;43289;52.962;6.196;2023-04-25T08:42:37;6.10;;;2.05;;
57443;SDS011;43289;52.962;6.196;2023-04-25T08:45:04;9.02;;;1.70;;
57443;SDS011;43289;52.962;6.196;2023-04-25T08:47:38;5.50;;;1.80;;
57443;SDS011;43289;52.962;6.196;2023-04-25T08:50:05;7.15;;;1.88;;
57443;SDS011;43289;52.962;6.196;2023-04-25T08:52:34;5.93;;;1.70;;
57443;SDS011;43289;52.962;6.196;2023-04-25T08:55:02;5.13;;;2.15;;
57443;SDS011;43289;52.962;6.196;2023-04-25T08:57:29;4.63;;;1.58;;
57443;SDS011;43289;52.962;6.196;2023-04-25T08:59:57;6.60;;;2.53;;
57443;SDS011;43289;52.962;6.196;2023-04-25T09:02:23;8.77;;;1.73;;
57443;SDS011;43289;52.962;6.196;2023-04-25T09:04:50;7.80;;;1.95;;
57443;SDS011;43289;52.962;6.196;2023-04-25T09:07:16;5.90;;;1.80;;
57443;SDS011;43289;52.962;6.196;2023-04-25T09:09:46;9.00;;;2.20;;
57443;SDS011;43289;52.962;6.196;2023-04-25T09:12:12;8.43;;;2.17;;
57443;SDS011;43289;52.962;6.196;2023-04-25T09:14:38;3.85;;;1.70;;
57443;SDS011;43289;52.962;6.196;2023-04-25T09:17:04;6.97;;;1.80;;
57443;SDS011;43289;52.962;6.196;2023-04-25T09:19:33;7.22;;;1.65;;
57443;SDS011;43289;52.962;6.196;2023-04-25T09:22:01;5.45;;;1.77;;
57443;SDS011;43289;52.962;6.196;2023-04-25T09:24:40;9.07;;;1.48;;
57443;SDS011;43289;52.962;6.196;2023-04-25T09:27:12;7.85;;;2.35;;
57443;SDS011;43289;52.962;6.196;2023-04-25T09:29:39;7.38;;;1.75;;
57443;SDS011;43289;52.962;6.196;2023-04-25T09:32:18;6.20;;;1.70;;
57443;SDS011;43289;52.962;6.196;2023-04-25T09:34:49;7.03;;;1.60;;
57443;SDS011;43289;52.962;6.196;2023-04-25T09:37:28;7.75;;;2.17;;
57443;SDS011;43289;52.962;6.196;2023-04-25T09:39:57;3.13;;;1.38;;
57443;SDS011;43289;52.962;6.196;2023-04-25T09:42:30;4.88;;;1.63;;
57443;SDS011;43289;52.962;6.196;2023-04-25T09:44:57;9.02;;;2.25;;
57443;SDS011;43289;52.962;6.196;2023-04-25T09:47:25;5.05;;;1.80;;
57443;SDS011;43289;52.962;6.196;2023-04-25T09:49:52;5.57;;;1.70;;
57443;SDS011;43289;52.962;6.196;2023-04-25T09:52:19;5.63;;;2.08;;
57443;SDS011;43289;52.962;6.196;2023-04-25T09:54:45;7.63;;;1.65;;
57443;SDS011;43289;52.962;6.196;2023-04-25T09:57:18;7.65;;;2.28;;
57443;SDS011;43289;52.962;6.196;2023-04-25T09:59:52;10.23;;;1.45;;
57443;SDS011;43289;52.962;6.196;2023-04-25T10:02:19;7.97;;;1.55;;
57443;SDS011;43289;52.962;6.196;2023-04-25T10:04:49;7.40;;;1.88;;
57443;SDS011;43289;52.962;6.196;2023-04-25T10:07:18;7.32;;;2.30;;
57443;SDS011;43289;52.962;6.196;2023-04-25T10:09:44;9.93;;;2.70;;
57443;SDS011;43289;52.962;6.196;2023-04-25T10:12:15;8.48;;;1.92;;
57443;SDS011;43289;52.962;6.196;2023-04-25T10:14:42;10.02;;;2.05;;
57443;SDS011;43289;52.962;6.196;2023-04-25T10:17:08;10.27;;;2.58;;
57443;SDS011;43289;52.962;6.196;2023-04-25T10:19:36;7.18;;;2.15;;
57443;SDS011;43289;52.962;6.196;2023-04-25T10:22:07;7.03;;;1.60;;
57443;SDS011;43289;52.962;6.196;2023-04-25T10:24:34;9.00;;;1.80;;
57443;SDS011;43289;52.962;6.196;2023-04-25T10:27:01;6.50;;;1.85;;
57443;SDS011;43289;52.962;6.196;2023-04-25T10:29:27;5.72;;;1.67;;
57443;SDS011;43289;52.962;6.196;2023-04-25T10:31:53;3.90;;;1.45;;
57443;SDS011;43289;52.962;6.196;2023-04-25T10:34:43;5.95;;;1.85;;
57443;SDS011;43289;52.962;6.196;2023-04-25T10:37:11;3.97;;;1.60;;
57443;SDS011;43289;52.962;6.196;2023-04-25T10:39:38;6.63;;;1.50;;
57443;SDS011;43289;52.962;6.196;2023-04-25T10:42:05;3.50;;;1.27;;
57443;SDS011;43289;52.962;6.196;2023-04-25T10:44:32;2.35;;;1.20;;
57443;SDS011;43289;52.962;6.196;2023-04-25T10:46:59;4.90;;;1.48;;
57443;SDS011;43289;52.962;6.196;2023-04-25T10:49:41;5.78;;;2.58;;
57443;SDS011;43289;52.962;6.196;2023-04-25T10:52:14;5.07;;;1.85;;
57443;SDS011;43289;52.962;6.196;2023-04-25T10:55:13;8.07;;;1.63;;
57443;SDS011;43289;52.962;6.196;2023-04-25T10:57:42;8.77;;;2.15;;
57443;SDS011;43289;52.962;6.196;2023-04-25T11:00:14;5.07;;;1.58;;
57443;SDS011;43289;52.962;6.196;2023-04-25T11:02:48;7.68;;;2.03;;
57443;SDS011;43289;52.962;6.196;2023-04-25T11:08:00;2.30;;;1.20;;
57443;SDS011;43289;52.962;6.196;2023-04-25T11:10:27;9.05;;;1.80;;
57443;SDS011;43289;52.962;6.196;2023-04-25T11:12:54;4.45;;;1.40;;
57443;SDS011;43289;52.962;6.196;2023-04-25T11:15:20;5.75;;;1.75;;
57443;SDS011;43289;52.962;6.196;2023-04-25T11:17:46;8.13;;;2.22;;
57443;SDS011;43289;52.962;6.196;2023-04-25T11:20:12;7.47;;;1.83;;
57443;SDS011;43289;52.962;6.196;2023-04-25T11:22:39;6.53;;;1.98;;
57443;SDS011;43289;52.962;6.196;2023-04-25T11:25:06;3.60;;;1.30;;
57443;SDS011;43289;52.962;6.196;2023-04-25T11:27:33;3.30;;;1.30;;
57443;SDS011;43289;52.962;6.196;2023-04-25T11:30:09;5.07;;;1.30;;
57443;SDS011;43289;52.962;6.196;2023-04-25T11:32:39;4.57;;;1.30;;
57443;SDS011;43289;52.962;6.196;2023-04-25T11:35:06;6.85;;;1.52;;
57443;SDS011;43289;52.962;6.196;2023-04-25T11:37:32;12.90;;;1.67;;
57443;SDS011;43289;52.962;6.196;2023-04-25T11:39:59;2.92;;;2.08;;
57443;SDS011;43289;52.962;6.196;2023-04-25T11:42:26;5.70;;;1.40;;
57443;SDS011;43289;52.962;6.196;2023-04-25T11:44:52;3.58;;;1.30;;
57443;SDS011;43289;52.962;6.196;2023-04-25T11:47:18;6.03;;;2.08;;
57443;SDS011;43289;52.962;6.196;2023-04-25T11:49:44;4.57;;;1.50;;
57443;SDS011;43289;52.962;6.196;2023-04-25T11:52:10;4.38;;;1.60;;
57443;SDS011;43289;52.962;6.196;2023-04-25T11:54:37;4.18;;;1.30;;
57443;SDS011;43289;52.962;6.196;2023-04-25T11:57:03;11.30;;;1.60;;
57443;SDS011;43289;52.962;6.196;2023-04-25T11:59:29;3.33;;;1.48;;
57443;SDS011;43289;52.962;6.196;2023-04-25T12:01:55;5.47;;;1.52;;
57443;SDS011;43289;52.962;6.196;2023-04-25T12:04:23;9.80;;;2.10;;
57443;SDS011;43289;52.962;6.196;2023-04-25T12:06:50;7.68;;;1.90;;
57443;SDS011;43289;52.962;6.196;2023-04-25T12:09:17;4.25;;;1.80;;
57443;SDS011;43289;52.962;6.196;2023-04-25T12:12:02;5.03;;;1.35;;
57443;SDS011;43289;52.962;6.196;2023-04-25T12:14:28;7.85;;;1.85;;
57443;SDS011;43289;52.962;6.196;2023-04-25T12:16:56;3.42;;;1.38;;
57443;SDS011;43289;52.962;6.196;2023-04-25T12:19:22;3.85;;;1.83;;
57443;SDS011;43289;52.962;6.196;2023-04-25T12:21:49;6.65;;;1.42;;
57443;SDS011;43289;52.962;6.196;2023-04-25T12:24:22;3.78;;;1.98;;
57443;SDS011;43289;52.962;6.196;2023-04-25T12:29:20;6.03;;;1.85;;
57443;SDS011;43289;52.962;6.196;2023-04-25T12:31:47;4.90;;;1.60;;
57443;SDS011;43289;52.962;6.196;2023-04-25T12:34:14;8.02;;;1.70;;
57443;SDS011;43289;52.962;6.196;2023-04-25T12:36:42;8.13;;;2.28;;
57443;SDS011;43289;52.962;6.196;2023-04-25T12:39:08;6.95;;;1.90;;
57443;SDS011;43289;52.962;6.196;2023-04-25T12:41:40;5.40;;;1.58;;
57443;SDS011;43289;52.962;6.196;2023-04-25T12:44:06;6.18;;;1.58;;
57443;SDS011;43289;52.962;6.196;2023-04-25T12:46:32;9.05;;;1.83;;
57443;SDS011;43289;52.962;6.196;2023-04-25T12:48:58;8.13;;;2.17;;
57443;SDS011;43289;52.962;6.196;2023-04-25T12:51:24;8.43;;;2.65;;
57443;SDS011;43289;52.962;6.196;2023-04-25T12:53:51;3.45;;;1.58;;
57443;SDS011;43289;52.962;6.196;2023-04-25T12:56:17;7.82;;;2.10;;
57443;SDS011;43289;52.962;6.196;2023-04-25T12:58:44;2.70;;;1.10;;
57443;SDS011;43289;52.962;6.196;2023-04-25T13:01:10;5.65;;;1.50;;
57443;SDS011;43289;52.962;6.196;2023-04-25T13:03:37;4.80;;;1.75;;
57443;SDS011;43289;52.962;6.196;2023-04-25T13:06:03;7.22;;;2.17;;
57443;SDS011;43289;52.962;6.196;2023-04-25T13:08:29;8.98;;;1.80;;
57443;SDS011;43289;52.962;6.196;2023-04-25T13:10:55;11.38;;;2.17;;
57443;SDS011;43289;52.962;6.196;2023-04-25T13:13:22;5.07;;;1.63;;
57443;SDS011;43289;52.962;6.196;2023-04-25T13:15:48;6.30;;;1.48;;
57443;SDS011;43289;52.962;6.196;2023-04-25T13:18:14;6.95;;;2.03;;
57443;SDS011;43289;52.962;6.196;2023-04-25T13:20:40;6.03;;;1.63;;
57443;SDS011;43289;52.962;6.196;2023-04-25T13:23:06;7.22;;;2.00;;
57443;SDS011;43289;52.962;6.196;2023-04-25T13:25:32;8.15;;;1.40;;
57443;SDS011;43289;52.962;6.196;2023-04-25T13:27:59;5.18;;;1.30;;
57443;SDS011;43289;52.962;6.196;2023-04-25T13:30:25;4.47;;;1.38;;
57443;SDS011;43289;52.962;6.196;2023-04-25T13:32:50;13.68;;;2.13;;
57443;SDS011;43289;52.962;6.196;2023-04-25T13:35:18;4.70;;;1.63;;
57443;SDS011;43289;52.962;6.196;2023-04-25T13:37:44;7.05;;;2.00;;
57443;SDS011;43289;52.962;6.196;2023-04-25T13:40:11;5.78;;;1.90;;
57443;SDS011;43289;52.962;6.196;2023-04-25T13:42:38;6.53;;;2.03;;
57443;SDS011;43289;52.962;6.196;2023-04-25T13:45:05;4.63;;;1.60;;
57443;SDS011;43289;52.962;6.196;2023-04-25T13:47:31;7.03;;;1.60;;
57443;SDS011;43289;52.962;6.196;2023-04-25T13:49:59;7.40;;;1.83;;
57443;SDS011;43289;52.962;6.196;2023-04-25T13:52:27;2.83;;;1.40;;
57443;SDS011;43289;52.962;6.196;2023-04-25T13:54:53;3.60;;;1.00;;
57443;SDS011;43289;52.962;6.196;2023-04-25T13:57:19;6.30;;;1.88;;
57443;SDS011;43289;52.962;6.196;2023-04-25T13:59:45;8.73;;;1.70;;
57443;SDS011;43289;52.962;6.196;2023-04-25T14:02:11;8.52;;;1.67;;
57443;SDS011;43289;52.962;6.196;2023-04-25T14:04:37;5.45;;;2.30;;
57443;SDS011;43289;52.962;6.196;2023-04-25T14:07:03;6.85;;;1.95;;
57443;SDS011;43289;52.962;6.196;2023-04-25T14:09:30;5.18;;;1.70;;
57443;SDS011;43289;52.962;6.196;2023-04-25T14:11:57;5.43;;;1.80;;
57443;SDS011;43289;52.962;6.196;2023-04-25T14:14:23;9.38;;;2.22;;
57443;SDS011;43289;52.962;6.196;2023-04-25T14:16:50;7.60;;;1.80;;
57443;SDS011;43289;52.962;6.196;2023-04-25T14:19:20;5.05;;;1.83;;
57443;SDS011;43289;52.962;6.196;2023-04-25T14:21:46;5.72;;;1.58;;
57443;SDS011;43289;52.962;6.196;2023-04-25T14:24:13;7.43;;;1.65;;
57443;SDS011;43289;52.962;6.196;2023-04-25T14:26:39;6.28;;;1.63;;
57443;SDS011;43289;52.962;6.196;2023-04-25T14:29:06;9.00;;;1.77;;
57443;SDS011;43289;52.962;6.196;2023-04-25T14:31:32;1.83;;;1.00;;
57443;SDS011;43289;52.962;6.196;2023-04-25T14:33:59;5.00;;;2.00;;
57443;SDS011;43289;52.962;6.196;2023-04-25T14:36:26;6.00;;;2.00;;
57443;SDS011;43289;52.962;6.196;2023-04-25T14:38:52;4.90;;;1.35;;
57443;SDS011;43289;52.962;6.196;2023-04-25T14:41:17;5.72;;;2.05;;
57443;SDS011;43289;52.962;6.196;2023-04-25T14:43:43;3.75;;;1.70;;
57443;SDS011;43289;52.962;6.196;2023-04-25T14:46:10;4.63;;;1.35;;
57443;SDS011;43289;52.962;6.196;2023-04-25T14:48:36;5.97;;;1.65;;